Villas del Faro, Puerto Rico
Current Conditions -  °F | °C
As of 7:53 PM on Thursday 27 Nov 2014 (Local Time) from TJNR Reporting Station
Clear Clear  
Wind Chill: 73°   Ceiling: Unl
Heat Index: 73°   Visibility: 10mi
Dew Point: 69°   Wind: 3mph
Humidity: 87%   Direction: 320°NW
Pressure: 29.98"   Gusts: NA
Location:  18.0098°N, 65.8982°W
Report Text: TJNR 272353Z AUTO 32003KT 10SM CLR 23/21 A2998 RMK AO2 SLP151 T02280206 10294 20228 53006 $
Loading
Personal Weather Stations






























Interactive Weather Map New forecast layout! Learn more

10-Day Weather Forecast

Advertisements
Track Severe Weather on mobile